sensor_id;sensor_type;location;lat;lon;timestamp;P1;durP1;ratioP1;P2;durP2;ratioP2
38621;SDS011;24380;51.132;5.360;2023-03-20T00:01:28;14.07;;;8.60;;
38621;SDS011;24380;51.132;5.360;2023-03-20T00:03:58;12.82;;;8.15;;
38621;SDS011;24380;51.132;5.360;2023-03-20T00:06:26;13.83;;;7.87;;
38621;SDS011;24380;51.132;5.360;2023-03-20T00:08:54;14.10;;;8.93;;
38621;SDS011;24380;51.132;5.360;2023-03-20T00:11:27;14.33;;;8.20;;
38621;SDS011;24380;51.132;5.360;2023-03-20T00:13:58;11.88;;;8.38;;
38621;SDS011;24380;51.132;5.360;2023-03-20T00:16:38;10.28;;;7.78;;
38621;SDS011;24380;51.132;5.360;2023-03-20T00:19:04;11.97;;;7.58;;
38621;SDS011;24380;51.132;5.360;2023-03-20T00:21:35;11.43;;;8.15;;
38621;SDS011;24380;51.132;5.360;2023-03-20T00:24:02;11.53;;;7.87;;
38621;SDS011;24380;51.132;5.360;2023-03-20T00:26:31;13.08;;;7.45;;
38621;SDS011;24380;51.132;5.360;2023-03-20T00:29:00;15.40;;;8.38;;
38621;SDS011;24380;51.132;5.360;2023-03-20T00:31:30;12.40;;;8.38;;
38621;SDS011;24380;51.132;5.360;2023-03-20T00:34:05;14.68;;;8.03;;
38621;SDS011;24380;51.132;5.360;2023-03-20T00:36:42;17.57;;;8.50;;
38621;SDS011;24380;51.132;5.360;2023-03-20T00:39:09;12.50;;;8.10;;
38621;SDS011;24380;51.132;5.360;2023-03-20T00:47:00;12.63;;;7.83;;
38621;SDS011;24380;51.132;5.360;2023-03-20T00:49:31;16.20;;;8.05;;
38621;SDS011;24380;51.132;5.360;2023-03-20T00:52:00;13.05;;;8.53;;
38621;SDS011;24380;51.132;5.360;2023-03-20T00:54:29;15.60;;;9.85;;
38621;SDS011;24380;51.132;5.360;2023-03-20T00:56:59;18.17;;;10.45;;
38621;SDS011;24380;51.132;5.360;2023-03-20T00:59:30;16.85;;;10.75;;
38621;SDS011;24380;51.132;5.360;2023-03-20T01:01:59;18.32;;;10.95;;
38621;SDS011;24380;51.132;5.360;2023-03-20T01:04:33;18.50;;;10.78;;
38621;SDS011;24380;51.132;5.360;2023-03-20T01:06:58;20.30;;;10.05;;
38621;SDS011;24380;51.132;5.360;2023-03-20T01:09:26;16.93;;;9.10;;
38621;SDS011;24380;51.132;5.360;2023-03-20T01:11:54;18.45;;;9.13;;
38621;SDS011;24380;51.132;5.360;2023-03-20T01:14:21;12.82;;;7.47;;
38621;SDS011;24380;51.132;5.360;2023-03-20T01:16:49;14.03;;;7.80;;
38621;SDS011;24380;51.132;5.360;2023-03-20T01:19:17;16.15;;;7.17;;
38621;SDS011;24380;51.132;5.360;2023-03-20T01:21:44;11.80;;;7.05;;
38621;SDS011;24380;51.132;5.360;2023-03-20T01:24:12;16.07;;;7.53;;
38621;SDS011;24380;51.132;5.360;2023-03-20T01:26:40;9.73;;;6.37;;
38621;SDS011;24380;51.132;5.360;2023-03-20T01:29:15;12.10;;;6.53;;
38621;SDS011;24380;51.132;5.360;2023-03-20T01:31:46;10.80;;;6.22;;
38621;SDS011;24380;51.132;5.360;2023-03-20T01:34:14;14.60;;;7.20;;
38621;SDS011;24380;51.132;5.360;2023-03-20T01:36:48;12.35;;;6.40;;
38621;SDS011;24380;51.132;5.360;2023-03-20T01:39:13;11.93;;;7.65;;
38621;SDS011;24380;51.132;5.360;2023-03-20T01:41:40;12.88;;;6.80;;
38621;SDS011;24380;51.132;5.360;2023-03-20T01:44:42;15.32;;;7.22;;
38621;SDS011;24380;51.132;5.360;2023-03-20T01:46:44;15.15;;;7.75;;
38621;SDS011;24380;51.132;5.360;2023-03-20T01:51:49;13.98;;;8.10;;
38621;SDS011;24380;51.132;5.360;2023-03-20T01:54:22;13.50;;;8.15;;
38621;SDS011;24380;51.132;5.360;2023-03-20T01:57:04;12.18;;;7.45;;
38621;SDS011;24380;51.132;5.360;2023-03-20T02:02:18;13.25;;;7.85;;
38621;SDS011;24380;51.132;5.360;2023-03-20T02:04:47;14.07;;;8.78;;
38621;SDS011;24380;51.132;5.360;2023-03-20T02:07:17;16.95;;;8.28;;
38621;SDS011;24380;51.132;5.360;2023-03-20T02:09:47;13.20;;;7.92;;
38621;SDS011;24380;51.132;5.360;2023-03-20T02:12:16;15.08;;;8.60;;
38621;SDS011;24380;51.132;5.360;2023-03-20T02:14:45;15.40;;;8.30;;
38621;SDS011;24380;51.132;5.360;2023-03-20T02:17:13;17.00;;;8.58;;
38621;SDS011;24380;51.132;5.360;2023-03-20T02:25:05;16.77;;;9.05;;
38621;SDS011;24380;51.132;5.360;2023-03-20T02:27:38;16.52;;;9.33;;
38621;SDS011;24380;51.132;5.360;2023-03-20T02:41:45;16.35;;;9.40;;
38621;SDS011;24380;51.132;5.360;2023-03-20T02:44:25;18.40;;;8.40;;
38621;SDS011;24380;51.132;5.360;2023-03-20T02:47:03;17.12;;;9.03;;
38621;SDS011;24380;51.132;5.360;2023-03-20T02:49:55;17.07;;;9.23;;
38621;SDS011;24380;51.132;5.360;2023-03-20T02:52:55;16.62;;;9.70;;
38621;SDS011;24380;51.132;5.360;2023-03-20T03:00:32;15.53;;;9.30;;
38621;SDS011;24380;51.132;5.360;2023-03-20T03:03:32;16.87;;;9.33;;
38621;SDS011;24380;51.132;5.360;2023-03-20T03:06:16;16.97;;;9.58;;
38621;SDS011;24380;51.132;5.360;2023-03-20T03:08:46;16.75;;;9.60;;
38621;SDS011;24380;51.132;5.360;2023-03-20T03:11:16;17.35;;;9.00;;
38621;SDS011;24380;51.132;5.360;2023-03-20T03:13:50;15.08;;;9.60;;
38621;SDS011;24380;51.132;5.360;2023-03-20T03:16:22;15.53;;;9.73;;
38621;SDS011;24380;51.132;5.360;2023-03-20T03:18:59;15.53;;;9.10;;
38621;SDS011;24380;51.132;5.360;2023-03-20T03:21:26;15.10;;;8.80;;
38621;SDS011;24380;51.132;5.360;2023-03-20T03:23:56;14.98;;;9.00;;
38621;SDS011;24380;51.132;5.360;2023-03-20T03:26:25;18.20;;;9.33;;
38621;SDS011;24380;51.132;5.360;2023-03-20T03:28:57;15.00;;;8.68;;
38621;SDS011;24380;51.132;5.360;2023-03-20T03:31:26;17.37;;;9.03;;
38621;SDS011;24380;51.132;5.360;2023-03-20T03:33:56;17.85;;;9.30;;
38621;SDS011;24380;51.132;5.360;2023-03-20T03:44:35;15.23;;;8.15;;
38621;SDS011;24380;51.132;5.360;2023-03-20T03:47:13;18.40;;;8.63;;
38621;SDS011;24380;51.132;5.360;2023-03-20T03:49:43;12.73;;;7.87;;
38621;SDS011;24380;51.132;5.360;2023-03-20T03:52:19;17.98;;;8.58;;
38621;SDS011;24380;51.132;5.360;2023-03-20T03:54:50;17.32;;;7.95;;
38621;SDS011;24380;51.132;5.360;2023-03-20T03:57:21;15.78;;;8.25;;
38621;SDS011;24380;51.132;5.360;2023-03-20T03:59:53;14.45;;;8.18;;
38621;SDS011;24380;51.132;5.360;2023-03-20T04:02:22;14.50;;;7.85;;
38621;SDS011;24380;51.132;5.360;2023-03-20T04:04:51;14.65;;;8.55;;
38621;SDS011;24380;51.132;5.360;2023-03-20T04:07:20;14.63;;;8.18;;
38621;SDS011;24380;51.132;5.360;2023-03-20T04:09:49;17.65;;;8.98;;
38621;SDS011;24380;51.132;5.360;2023-03-20T04:12:29;13.08;;;8.23;;
38621;SDS011;24380;51.132;5.360;2023-03-20T04:15:02;14.07;;;8.63;;
38621;SDS011;24380;51.132;5.360;2023-03-20T04:17:31;18.67;;;9.48;;
38621;SDS011;24380;51.132;5.360;2023-03-20T04:19:59;16.15;;;8.75;;
38621;SDS011;24380;51.132;5.360;2023-03-20T04:22:27;14.20;;;8.18;;
38621;SDS011;24380;51.132;5.360;2023-03-20T04:24:54;19.00;;;9.13;;
38621;SDS011;24380;51.132;5.360;2023-03-20T04:27:23;14.55;;;8.75;;
38621;SDS011;24380;51.132;5.360;2023-03-20T04:29:50;16.50;;;8.55;;
38621;SDS011;24380;51.132;5.360;2023-03-20T04:32:18;14.05;;;8.53;;
38621;SDS011;24380;51.132;5.360;2023-03-20T04:34:46;17.35;;;9.08;;
38621;SDS011;24380;51.132;5.360;2023-03-20T04:37:13;14.75;;;8.55;;
38621;SDS011;24380;51.132;5.360;2023-03-20T04:39:41;15.43;;;8.53;;
38621;SDS011;24380;51.132;5.360;2023-03-20T04:42:08;16.62;;;9.08;;
38621;SDS011;24380;51.132;5.360;2023-03-20T04:44:36;16.17;;;8.90;;
38621;SDS011;24380;51.132;5.360;2023-03-20T04:47:04;16.35;;;9.25;;
38621;SDS011;24380;51.132;5.360;2023-03-20T04:49:31;17.17;;;9.70;;
38621;SDS011;24380;51.132;5.360;2023-03-20T04:51:59;20.23;;;9.83;;
38621;SDS011;24380;51.132;5.360;2023-03-20T04:54:26;21.20;;;9.63;;
38621;SDS011;24380;51.132;5.360;2023-03-20T04:56:54;22.25;;;10.40;;
38621;SDS011;24380;51.132;5.360;2023-03-20T04:59:21;21.10;;;9.80;;
38621;SDS011;24380;51.132;5.360;2023-03-20T05:01:49;16.75;;;9.68;;
38621;SDS011;24380;51.132;5.360;2023-03-20T05:04:16;21.82;;;10.20;;
38621;SDS011;24380;51.132;5.360;2023-03-20T05:06:44;19.67;;;10.40;;
38621;SDS011;24380;51.132;5.360;2023-03-20T05:09:14;21.65;;;10.48;;
38621;SDS011;24380;51.132;5.360;2023-03-20T05:11:42;19.50;;;9.80;;
38621;SDS011;24380;51.132;5.360;2023-03-20T05:14:10;19.32;;;11.00;;
38621;SDS011;24380;51.132;5.360;2023-03-20T05:16:38;20.82;;;9.85;;
38621;SDS011;24380;51.132;5.360;2023-03-20T05:19:05;18.60;;;9.98;;
38621;SDS011;24380;51.132;5.360;2023-03-20T05:21:33;20.05;;;9.43;;
38621;SDS011;24380;51.132;5.360;2023-03-20T05:24:00;21.37;;;9.63;;
38621;SDS011;24380;51.132;5.360;2023-03-20T05:26:28;16.85;;;9.70;;
38621;SDS011;24380;51.132;5.360;2023-03-20T05:28:55;19.82;;;10.32;;
38621;SDS011;24380;51.132;5.360;2023-03-20T05:31:23;22.35;;;10.45;;
38621;SDS011;24380;51.132;5.360;2023-03-20T05:33:50;19.70;;;9.83;;
38621;SDS011;24380;51.132;5.360;2023-03-20T05:36:18;20.72;;;10.40;;
38621;SDS011;24380;51.132;5.360;2023-03-20T05:38:46;21.40;;;11.10;;
38621;SDS011;24380;51.132;5.360;2023-03-20T05:41:13;18.48;;;9.78;;
38621;SDS011;24380;51.132;5.360;2023-03-20T05:43:41;25.02;;;10.75;;
38621;SDS011;24380;51.132;5.360;2023-03-20T05:46:08;19.07;;;10.28;;
38621;SDS011;24380;51.132;5.360;2023-03-20T05:48:36;20.08;;;10.32;;
38621;SDS011;24380;51.132;5.360;2023-03-20T05:51:04;19.98;;;10.98;;
38621;SDS011;24380;51.132;5.360;2023-03-20T05:53:32;21.40;;;10.53;;
38621;SDS011;24380;51.132;5.360;2023-03-20T05:55:59;20.95;;;11.20;;
38621;SDS011;24380;51.132;5.360;2023-03-20T05:58:27;22.55;;;10.82;;
38621;SDS011;24380;51.132;5.360;2023-03-20T06:00:55;24.70;;;11.08;;
38621;SDS011;24380;51.132;5.360;2023-03-20T06:03:23;24.10;;;11.57;;
38621;SDS011;24380;51.132;5.360;2023-03-20T06:05:51;21.82;;;10.90;;
38621;SDS011;24380;51.132;5.360;2023-03-20T06:08:18;22.80;;;11.53;;
38621;SDS011;24380;51.132;5.360;2023-03-20T06:10:48;23.92;;;11.33;;
38621;SDS011;24380;51.132;5.360;2023-03-20T06:13:16;24.77;;;12.73;;
38621;SDS011;24380;51.132;5.360;2023-03-20T06:15:43;26.15;;;11.33;;
38621;SDS011;24380;51.132;5.360;2023-03-20T06:18:11;25.02;;;12.25;;
38621;SDS011;24380;51.132;5.360;2023-03-20T06:20:38;24.10;;;11.38;;
38621;SDS011;24380;51.132;5.360;2023-03-20T06:23:06;25.10;;;12.47;;
38621;SDS011;24380;51.132;5.360;2023-03-20T06:25:34;24.23;;;11.90;;
38621;SDS011;24380;51.132;5.360;2023-03-20T06:28:01;23.27;;;11.90;;
38621;SDS011;24380;51.132;5.360;2023-03-20T06:30:29;27.05;;;11.40;;
38621;SDS011;24380;51.132;5.360;2023-03-20T06:32:56;29.42;;;11.78;;
38621;SDS011;24380;51.132;5.360;2023-03-20T06:35:24;25.82;;;11.45;;
38621;SDS011;24380;51.132;5.360;2023-03-20T06:37:53;25.12;;;11.83;;
38621;SDS011;24380;51.132;5.360;2023-03-20T06:40:21;24.10;;;11.53;;
38621;SDS011;24380;51.132;5.360;2023-03-20T06:42:48;21.37;;;12.13;;
38621;SDS011;24380;51.132;5.360;2023-03-20T06:45:16;24.30;;;11.68;;
38621;SDS011;24380;51.132;5.360;2023-03-20T06:47:43;24.67;;;11.68;;
38621;SDS011;24380;51.132;5.360;2023-03-20T06:50:12;26.10;;;12.30;;
38621;SDS011;24380;51.132;5.360;2023-03-20T06:52:40;23.87;;;10.95;;
38621;SDS011;24380;51.132;5.360;2023-03-20T06:55:08;23.05;;;10.93;;
38621;SDS011;24380;51.132;5.360;2023-03-20T06:57:35;21.82;;;11.95;;
38621;SDS011;24380;51.132;5.360;2023-03-20T07:00:04;29.60;;;11.63;;
38621;SDS011;24380;51.132;5.360;2023-03-20T07:02:32;25.00;;;10.75;;
38621;SDS011;24380;51.132;5.360;2023-03-20T07:05:00;20.17;;;10.40;;
38621;SDS011;24380;51.132;5.360;2023-03-20T07:07:28;23.47;;;10.35;;
38621;SDS011;24380;51.132;5.360;2023-03-20T07:09:55;27.30;;;10.70;;
38621;SDS011;24380;51.132;5.360;2023-03-20T07:12:23;24.55;;;10.60;;
38621;SDS011;24380;51.132;5.360;2023-03-20T07:14:52;22.65;;;10.23;;
38621;SDS011;24380;51.132;5.360;2023-03-20T07:17:21;22.40;;;10.50;;
38621;SDS011;24380;51.132;5.360;2023-03-20T07:19:48;19.98;;;9.63;;
38621;SDS011;24380;51.132;5.360;2023-03-20T07:22:23;18.98;;;9.60;;
38621;SDS011;24380;51.132;5.360;2023-03-20T07:24:52;19.55;;;9.20;;
38621;SDS011;24380;51.132;5.360;2023-03-20T07:27:20;17.85;;;9.18;;
38621;SDS011;24380;51.132;5.360;2023-03-20T07:29:48;21.73;;;9.00;;
38621;SDS011;24380;51.132;5.360;2023-03-20T07:32:16;24.07;;;8.98;;
38621;SDS011;24380;51.132;5.360;2023-03-20T07:34:43;20.88;;;8.90;;
38621;SDS011;24380;51.132;5.360;2023-03-20T07:37:12;22.00;;;8.60;;
38621;SDS011;24380;51.132;5.360;2023-03-20T07:39:39;20.80;;;9.00;;
38621;SDS011;24380;51.132;5.360;2023-03-20T07:42:07;16.60;;;8.10;;
38621;SDS011;24380;51.132;5.360;2023-03-20T07:44:35;21.15;;;7.72;;
38621;SDS011;24380;51.132;5.360;2023-03-20T07:47:02;21.45;;;8.15;;
38621;SDS011;24380;51.132;5.360;2023-03-20T07:49:31;16.32;;;8.03;;
38621;SDS011;24380;51.132;5.360;2023-03-20T07:51:59;14.63;;;6.72;;
38621;SDS011;24380;51.132;5.360;2023-03-20T07:54:26;18.80;;;7.55;;
38621;SDS011;24380;51.132;5.360;2023-03-20T07:56:54;17.50;;;6.97;;
38621;SDS011;24380;51.132;5.360;2023-03-20T07:59:22;18.10;;;7.70;;
38621;SDS011;24380;51.132;5.360;2023-03-20T08:01:49;15.65;;;7.25;;
38621;SDS011;24380;51.132;5.360;2023-03-20T08:04:17;16.77;;;6.53;;
38621;SDS011;24380;51.132;5.360;2023-03-20T08:06:46;18.15;;;5.95;;
38621;SDS011;24380;51.132;5.360;2023-03-20T08:09:14;12.85;;;6.25;;
38621;SDS011;24380;51.132;5.360;2023-03-20T08:11:42;14.93;;;6.03;;
38621;SDS011;24380;51.132;5.360;2023-03-20T08:14:10;15.48;;;6.10;;
38621;SDS011;24380;51.132;5.360;2023-03-20T08:16:37;10.85;;;5.67;;
38621;SDS011;24380;51.132;5.360;2023-03-20T08:19:05;17.27;;;6.10;;
38621;SDS011;24380;51.132;5.360;2023-03-20T08:21:33;12.37;;;5.72;;
38621;SDS011;24380;51.132;5.360;2023-03-20T08:24:00;16.73;;;5.72;;
38621;SDS011;24380;51.132;5.360;2023-03-20T08:26:28;16.37;;;5.85;;
38621;SDS011;24380;51.132;5.360;2023-03-20T08:28:56;13.25;;;5.85;;
38621;SDS011;24380;51.132;5.360;2023-03-20T08:31:24;15.63;;;5.10;;
38621;SDS011;24380;51.132;5.360;2023-03-20T08:33:52;11.35;;;5.30;;
38621;SDS011;24380;51.132;5.360;2023-03-20T08:36:21;10.82;;;5.50;;
38621;SDS011;24380;51.132;5.360;2023-03-20T08:38:49;16.12;;;6.15;;
38621;SDS011;24380;51.132;5.360;2023-03-20T08:41:16;14.25;;;5.17;;
38621;SDS011;24380;51.132;5.360;2023-03-20T08:43:45;12.00;;;5.33;;
38621;SDS011;24380;51.132;5.360;2023-03-20T08:46:12;13.03;;;5.17;;
38621;SDS011;24380;51.132;5.360;2023-03-20T08:48:40;13.35;;;5.00;;
38621;SDS011;24380;51.132;5.360;2023-03-20T08:51:07;11.57;;;4.65;;
38621;SDS011;24380;51.132;5.360;2023-03-20T08:53:35;14.25;;;5.53;;
38621;SDS011;24380;51.132;5.360;2023-03-20T08:56:02;12.47;;;4.58;;
38621;SDS011;24380;51.132;5.360;2023-03-20T08:58:30;11.90;;;5.28;;
38621;SDS011;24380;51.132;5.360;2023-03-20T09:01:04;11.70;;;4.55;;
38621;SDS011;24380;51.132;5.360;2023-03-20T09:03:34;9.63;;;4.10;;
38621;SDS011;24380;51.132;5.360;2023-03-20T09:06:06;13.88;;;4.55;;
38621;SDS011;24380;51.132;5.360;2023-03-20T09:08:34;10.43;;;4.72;;
38621;SDS011;24380;51.132;5.360;2023-03-20T09:11:02;10.38;;;4.25;;
38621;SDS011;24380;51.132;5.360;2023-03-20T09:13:31;15.55;;;4.75;;
38621;SDS011;24380;51.132;5.360;2023-03-20T09:15:59;13.30;;;4.60;;
38621;SDS011;24380;51.132;5.360;2023-03-20T09:18:26;9.63;;;4.45;;
38621;SDS011;24380;51.132;5.360;2023-03-20T09:20:54;13.95;;;4.37;;
38621;SDS011;24380;51.132;5.360;2023-03-20T09:23:21;14.85;;;4.70;;
38621;SDS011;24380;51.132;5.360;2023-03-20T09:25:49;12.25;;;4.90;;
38621;SDS011;24380;51.132;5.360;2023-03-20T09:28:17;10.23;;;4.50;;
38621;SDS011;24380;51.132;5.360;2023-03-20T09:30:44;14.60;;;4.70;;
38621;SDS011;24380;51.132;5.360;2023-03-20T09:33:12;13.68;;;5.20;;
38621;SDS011;24380;51.132;5.360;2023-03-20T09:35:39;13.55;;;4.90;;
38621;SDS011;24380;51.132;5.360;2023-03-20T09:38:07;12.35;;;4.47;;
38621;SDS011;24380;51.132;5.360;2023-03-20T09:40:55;10.70;;;4.33;;
38621;SDS011;24380;51.132;5.360;2023-03-20T09:46:25;10.10;;;4.47;;
38621;SDS011;24380;51.132;5.360;2023-03-20T09:49:03;12.35;;;4.28;;
38621;SDS011;24380;51.132;5.360;2023-03-20T09:54:16;11.15;;;4.55;;
38621;SDS011;24380;51.132;5.360;2023-03-20T09:56:41;17.35;;;4.83;;
38621;SDS011;24380;51.132;5.360;2023-03-20T09:59:10;16.05;;;5.22;;
38621;SDS011;24380;51.132;5.360;2023-03-20T10:01:44;14.20;;;4.85;;
38621;SDS011;24380;51.132;5.360;2023-03-20T10:04:16;11.60;;;4.40;;
38621;SDS011;24380;51.132;5.360;2023-03-20T10:06:44;10.75;;;4.80;;
38621;SDS011;24380;51.132;5.360;2023-03-20T10:09:20;13.72;;;5.45;;
38621;SDS011;24380;51.132;5.360;2023-03-20T10:20:41;16.25;;;5.53;;
38621;SDS011;24380;51.132;5.360;2023-03-20T10:23:15;12.98;;;5.22;;
38621;SDS011;24380;51.132;5.360;2023-03-20T10:25:47;11.22;;;4.53;;
38621;SDS011;24380;51.132;5.360;2023-03-20T10:28:20;11.65;;;4.97;;
38621;SDS011;24380;51.132;5.360;2023-03-20T10:36:14;11.53;;;4.92;;
38621;SDS011;24380;51.132;5.360;2023-03-20T10:41:31;11.93;;;5.30;;
38621;SDS011;24380;51.132;5.360;2023-03-20T10:43:59;11.95;;;5.20;;
38621;SDS011;24380;51.132;5.360;2023-03-20T10:46:33;13.98;;;5.60;;
38621;SDS011;24380;51.132;5.360;2023-03-20T10:49:13;15.28;;;5.50;;
38621;SDS011;24380;51.132;5.360;2023-03-20T10:51:50;15.03;;;5.72;;
38621;SDS011;24380;51.132;5.360;2023-03-20T10:54:22;15.15;;;5.35;;
38621;SDS011;24380;51.132;5.360;2023-03-20T10:56:51;13.53;;;5.28;;
38621;SDS011;24380;51.132;5.360;2023-03-20T11:01:54;12.85;;;5.28;;
38621;SDS011;24380;51.132;5.360;2023-03-20T11:04:22;16.85;;;5.72;;
38621;SDS011;24380;51.132;5.360;2023-03-20T11:06:56;10.40;;;4.55;;
38621;SDS011;24380;51.132;5.360;2023-03-20T11:09:30;12.73;;;4.63;;
38621;SDS011;24380;51.132;5.360;2023-03-20T11:11:58;14.55;;;4.78;;
38621;SDS011;24380;51.132;5.360;2023-03-20T11:14:32;14.78;;;5.67;;
38621;SDS011;24380;51.132;5.360;2023-03-20T11:17:01;17.37;;;5.62;;
38621;SDS011;24380;51.132;5.360;2023-03-20T11:19:34;14.05;;;5.47;;
38621;SDS011;24380;51.132;5.360;2023-03-20T11:22:23;12.78;;;5.17;;
38621;SDS011;24380;51.132;5.360;2023-03-20T11:24:41;12.47;;;4.40;;
38621;SDS011;24380;51.132;5.360;2023-03-20T11:27:47;15.88;;;4.90;;
38621;SDS011;24380;51.132;5.360;2023-03-20T11:29:52;18.35;;;5.12;;
38621;SDS011;24380;51.132;5.360;2023-03-20T11:34:53;15.63;;;4.80;;
38621;SDS011;24380;51.132;5.360;2023-03-20T11:37:28;18.30;;;5.30;;
38621;SDS011;24380;51.132;5.360;2023-03-20T11:45:34;15.03;;;4.92;;
38621;SDS011;24380;51.132;5.360;2023-03-20T11:49:00;13.15;;;5.12;;
38621;SDS011;24380;51.132;5.360;2023-03-20T11:53:33;11.33;;;4.62;;
38621;SDS011;24380;51.132;5.360;2023-03-20T11:58:54;10.82;;;4.17;;
38621;SDS011;24380;51.132;5.360;2023-03-20T12:01:24;16.02;;;4.37;;
38621;SDS011;24380;51.132;5.360;2023-03-20T12:06:51;11.08;;;4.58;;
38621;SDS011;24380;51.132;5.360;2023-03-20T12:09:49;13.65;;;4.30;;
38621;SDS011;24380;51.132;5.360;2023-03-20T12:12:23;10.70;;;4.03;;
38621;SDS011;24380;51.132;5.360;2023-03-20T12:14:53;9.35;;;3.98;;
38621;SDS011;24380;51.132;5.360;2023-03-20T12:20:06;14.78;;;4.72;;
38621;SDS011;24380;51.132;5.360;2023-03-20T12:22:44;10.80;;;4.25;;
38621;SDS011;24380;51.132;5.360;2023-03-20T12:30:35;16.27;;;4.92;;
38621;SDS011;24380;51.132;5.360;2023-03-20T12:33:06;11.25;;;4.78;;
38621;SDS011;24380;51.132;5.360;2023-03-20T12:35:41;16.17;;;4.87;;
38621;SDS011;24380;51.132;5.360;2023-03-20T12:40:41;12.37;;;4.85;;
38621;SDS011;24380;51.132;5.360;2023-03-20T12:45:49;11.60;;;4.70;;
38621;SDS011;24380;51.132;5.360;2023-03-20T12:56:51;13.15;;;4.30;;
38621;SDS011;24380;51.132;5.360;2023-03-20T13:02:29;11.12;;;3.58;;
38621;SDS011;24380;51.132;5.360;2023-03-20T13:26:12;9.40;;;2.87;;
38621;SDS011;24380;51.132;5.360;2023-03-20T13:32:29;9.63;;;3.15;;
38621;SDS011;24380;51.132;5.360;2023-03-20T13:34:26;13.10;;;4.28;;
38621;SDS011;24380;51.132;5.360;2023-03-20T13:37:04;9.68;;;3.15;;
38621;SDS011;24380;51.132;5.360;2023-03-20T13:42:42;8.20;;;2.92;;
38621;SDS011;24380;51.132;5.360;2023-03-20T13:45:30;9.63;;;3.00;;
38621;SDS011;24380;51.132;5.360;2023-03-20T13:48:03;9.30;;;3.52;;
38621;SDS011;24380;51.132;5.360;2023-03-20T13:53:06;10.00;;;3.30;;
38621;SDS011;24380;51.132;5.360;2023-03-20T13:55:44;10.38;;;2.90;;
38621;SDS011;24380;51.132;5.360;2023-03-20T14:03:47;7.80;;;2.98;;
38621;SDS011;24380;51.132;5.360;2023-03-20T14:06:17;9.33;;;2.95;;
38621;SDS011;24380;51.132;5.360;2023-03-20T14:08:51;8.25;;;3.22;;
38621;SDS011;24380;51.132;5.360;2023-03-20T14:14:12;8.38;;;3.15;;
38621;SDS011;24380;51.132;5.360;2023-03-20T14:16:41;9.48;;;2.95;;
38621;SDS011;24380;51.132;5.360;2023-03-20T14:19:16;8.45;;;2.90;;
38621;SDS011;24380;51.132;5.360;2023-03-20T14:21:46;7.55;;;2.80;;
38621;SDS011;24380;51.132;5.360;2023-03-20T14:24:16;9.13;;;2.98;;
38621;SDS011;24380;51.132;5.360;2023-03-20T14:26:48;10.72;;;3.17;;
38621;SDS011;24380;51.132;5.360;2023-03-20T14:29:19;8.18;;;2.75;;
38621;SDS011;24380;51.132;5.360;2023-03-20T14:31:48;11.57;;;3.10;;
38621;SDS011;24380;51.132;5.360;2023-03-20T14:34:18;13.20;;;3.60;;
38621;SDS011;24380;51.132;5.360;2023-03-20T14:36:55;11.08;;;4.22;;
38621;SDS011;24380;51.132;5.360;2023-03-20T14:42:20;10.78;;;3.05;;
38621;SDS011;24380;51.132;5.360;2023-03-20T14:48:03;15.70;;;5.92;;
38621;SDS011;24380;51.132;5.360;2023-03-20T14:50:37;10.48;;;3.45;;
38621;SDS011;24380;51.132;5.360;2023-03-20T14:53:26;6.50;;;3.20;;
38621;SDS011;24380;51.132;5.360;2023-03-20T15:04:38;12.25;;;4.25;;
38621;SDS011;24380;51.132;5.360;2023-03-20T15:06:28;12.85;;;4.00;;
38621;SDS011;24380;51.132;5.360;2023-03-20T15:09:03;11.68;;;4.37;;
38621;SDS011;24380;51.132;5.360;2023-03-20T15:11:26;15.15;;;4.45;;
38621;SDS011;24380;51.132;5.360;2023-03-20T15:13:55;12.90;;;4.20;;
38621;SDS011;24380;51.132;5.360;2023-03-20T15:16:27;11.60;;;4.30;;
38621;SDS011;24380;51.132;5.360;2023-03-20T15:18:56;10.32;;;4.80;;
38621;SDS011;24380;51.132;5.360;2023-03-20T15:21:30;12.98;;;4.55;;
38621;SDS011;24380;51.132;5.360;2023-03-20T15:24:05;10.72;;;4.45;;
38621;SDS011;24380;51.132;5.360;2023-03-20T15:26:33;14.25;;;5.08;;
38621;SDS011;24380;51.132;5.360;2023-03-20T15:29:09;16.80;;;5.00;;
38621;SDS011;24380;51.132;5.360;2023-03-20T15:34:01;15.70;;;5.05;;
38621;SDS011;24380;51.132;5.360;2023-03-20T15:36:32;14.73;;;5.25;;
38621;SDS011;24380;51.132;5.360;2023-03-20T15:41:46;14.95;;;4.90;;
38621;SDS011;24380;51.132;5.360;2023-03-20T15:44:17;13.75;;;4.70;;
38621;SDS011;24380;51.132;5.360;2023-03-20T15:46:58;17.00;;;5.30;;
38621;SDS011;24380;51.132;5.360;2023-03-20T15:49:38;17.57;;;4.78;;
38621;SDS011;24380;51.132;5.360;2023-03-20T15:52:52;10.20;;;4.70;;
38621;SDS011;24380;51.132;5.360;2023-03-20T15:54:41;11.53;;;5.12;;
38621;SDS011;24380;51.132;5.360;2023-03-20T15:57:10;15.32;;;5.40;;
38621;SDS011;24380;51.132;5.360;2023-03-20T15:59:39;14.50;;;4.85;;
38621;SDS011;24380;51.132;5.360;2023-03-20T16:02:07;21.77;;;5.42;;
38621;SDS011;24380;51.132;5.360;2023-03-20T16:04:42;14.87;;;4.90;;
38621;SDS011;24380;51.132;5.360;2023-03-20T16:07:21;13.65;;;6.30;;
38621;SDS011;24380;51.132;5.360;2023-03-20T16:09:58;14.13;;;4.90;;
38621;SDS011;24380;51.132;5.360;2023-03-20T16:12:26;18.95;;;5.37;;
38621;SDS011;24380;51.132;5.360;2023-03-20T16:14:54;16.20;;;5.87;;
38621;SDS011;24380;51.132;5.360;2023-03-20T16:17:23;21.87;;;10.18;;
38621;SDS011;24380;51.132;5.360;2023-03-20T16:19:51;14.15;;;5.55;;
38621;SDS011;24380;51.132;5.360;2023-03-20T16:22:26;16.42;;;7.85;;
38621;SDS011;24380;51.132;5.360;2023-03-20T16:24:57;16.93;;;5.37;;
38621;SDS011;24380;51.132;5.360;2023-03-20T16:27:33;15.60;;;7.12;;
38621;SDS011;24380;51.132;5.360;2023-03-20T16:30:06;17.15;;;6.22;;
38621;SDS011;24380;51.132;5.360;2023-03-20T16:32:46;14.75;;;5.80;;
38621;SDS011;24380;51.132;5.360;2023-03-20T16:35:17;13.30;;;5.03;;
38621;SDS011;24380;51.132;5.360;2023-03-20T16:37:53;18.42;;;6.08;;
38621;SDS011;24380;51.132;5.360;2023-03-20T16:40:35;13.68;;;5.22;;
38621;SDS011;24380;51.132;5.360;2023-03-20T16:43:13;16.25;;;6.30;;
38621;SDS011;24380;51.132;5.360;2023-03-20T16:45:48;15.05;;;5.50;;
38621;SDS011;24380;51.132;5.360;2023-03-20T16:50:47;12.00;;;5.50;;
38621;SDS011;24380;51.132;5.360;2023-03-20T16:53:28;17.23;;;6.03;;
38621;SDS011;24380;51.132;5.360;2023-03-20T16:55:58;14.05;;;6.50;;
38621;SDS011;24380;51.132;5.360;2023-03-20T16:58:29;17.05;;;6.58;;
38621;SDS011;24380;51.132;5.360;2023-03-20T17:03:33;13.48;;;6.42;;
38621;SDS011;24380;51.132;5.360;2023-03-20T17:06:26;15.45;;;5.95;;
38621;SDS011;24380;51.132;5.360;2023-03-20T17:08:42;20.55;;;6.92;;
38621;SDS011;24380;51.132;5.360;2023-03-20T17:11:13;16.40;;;6.75;;
38621;SDS011;24380;51.132;5.360;2023-03-20T17:13:42;17.32;;;6.55;;
38621;SDS011;24380;51.132;5.360;2023-03-20T17:16:16;16.82;;;7.87;;
38621;SDS011;24380;51.132;5.360;2023-03-20T17:18:40;14.15;;;7.97;;
38621;SDS011;24380;51.132;5.360;2023-03-20T17:21:09;15.38;;;7.47;;
38621;SDS011;24380;51.132;5.360;2023-03-20T17:23:37;17.77;;;7.95;;
38621;SDS011;24380;51.132;5.360;2023-03-20T17:26:09;16.32;;;6.97;;
38621;SDS011;24380;51.132;5.360;2023-03-20T17:28:37;19.27;;;6.60;;
38621;SDS011;24380;51.132;5.360;2023-03-20T17:31:08;17.75;;;7.05;;
38621;SDS011;24380;51.132;5.360;2023-03-20T17:33:37;24.10;;;7.70;;
38621;SDS011;24380;51.132;5.360;2023-03-20T17:36:08;17.60;;;7.17;;
38621;SDS011;24380;51.132;5.360;2023-03-20T17:38:47;22.32;;;8.23;;
38621;SDS011;24380;51.132;5.360;2023-03-20T17:41:15;19.42;;;7.97;;
38621;SDS011;24380;51.132;5.360;2023-03-20T17:43:44;17.60;;;7.42;;